Time;durP1;ratioP1;P1;durP2;ratioP2;P2;SDS_P1;SDS_P2;PMS_P1;PMS_P2;Temp;Humidity;BMP_temperature;BMP_pressure;BME280_temperature;BME280_humidity;BME280_pressure;Samples;Min_cycle;Max_cycle;Signal;HPM_P1;HPM_P2
2023/01/13 00:01:06;;;;;;;4.38;2.65;;;;;;;9.94;100.00;101288.09;2102937;28;20054;-81
2023/01/13 00:02:28;;;;;;;5.18;2.60;;;;;;;9.93;100.00;101288.94;2103237;28;20100;-81
2023/01/13 00:03:52;;;;;;;4.10;2.70;;;;;;;9.91;100.00;101280.13;2102546;28;20056;-81
2023/01/13 00:05:14;;;;;;;7.35;3.17;;;;;;;9.91;100.00;101288.91;2101212;28;20055;-83
2023/01/13 00:06:37;;;;;;;6.18;3.47;;;;;;;9.92;100.00;101282.78;2102472;28;20052;-81
2023/01/13 00:08:00;;;;;;;7.78;4.60;;;;;;;9.91;100.00;101286.25;2102703;28;20064;-82
2023/01/13 00:09:22;;;;;;;10.98;5.50;;;;;;;9.92;100.00;101280.13;2101544;28;20063;-81
2023/01/13 00:10:48;;;;;;;16.33;9.80;;;;;;;9.93;100.00;101278.41;2093974;28;20048;-81
2023/01/13 00:12:11;;;;;;;21.45;12.35;;;;;;;9.92;100.00;101268.69;2105334;28;20052;-81
2023/01/13 00:13:34;;;;;;;18.10;9.40;;;;;;;9.92;100.00;101264.31;2103582;28;20055;-81
2023/01/13 00:14:56;;;;;;;12.10;6.18;;;;;;;9.93;100.00;101273.13;2105163;28;20134;-81
2023/01/13 00:16:20;;;;;;;8.13;4.63;;;;;;;9.92;100.00;101271.34;2088737;28;20503;-82
2023/01/13 00:17:43;;;;;;;6.63;3.47;;;;;;;9.90;100.00;101273.97;2099817;28;20101;-82
2023/01/13 00:19:06;;;;;;;8.75;4.38;;;;;;;9.91;100.00;101274.84;2096802;28;20051;-81
2023/01/13 00:20:28;;;;;;;9.98;6.90;;;;;;;9.89;100.00;101272.16;2086156;28;20074;-82
2023/01/13 00:21:50;;;;;;;8.73;6.78;;;;;;;9.91;100.00;101273.06;2091360;28;20079;-82
2023/01/13 00:23:13;;;;;;;7.68;5.90;;;;;;;9.92;100.00;101276.59;2104739;28;20512;-81
2023/01/13 00:24:35;;;;;;;8.75;5.72;;;;;;;9.93;100.00;101271.38;2096751;28;20048;-82
2023/01/13 00:25:58;;;;;;;6.35;4.47;;;;;;;9.93;100.00;101270.50;2093977;28;20036;-82
2023/01/13 00:27:24;;;;;;;5.65;3.40;;;;;;;9.95;100.00;101271.44;2094211;28;20107;-82
2023/01/13 00:28:45;;;;;;;7.22;3.67;;;;;;;9.94;100.00;101269.63;2103594;28;20090;-82
2023/01/13 00:30:09;;;;;;;6.60;3.88;;;;;;;9.94;100.00;101267.91;2094062;28;20044;-82
2023/01/13 00:31:32;;;;;;;6.15;3.80;;;;;;;9.94;100.00;101272.28;2094498;28;20045;-82
2023/01/13 00:32:55;;;;;;;5.95;3.88;;;;;;;9.92;100.00;101264.31;2088809;28;20076;-82
2023/01/13 00:34:16;;;;;;;5.78;3.83;;;;;;;9.90;100.00;101273.06;2091398;28;20056;-82
2023/01/13 00:35:39;;;;;;;8.23;3.53;;;;;;;9.85;100.00;101272.03;2094080;28;20140;-81
2023/01/13 00:37:02;;;;;;;5.55;3.75;;;;;;;9.81;100.00;101265.78;2097100;28;20055;-81
2023/01/13 00:38:24;;;;;;;5.85;3.67;;;;;;;9.78;100.00;101270.97;2094040;28;20136;-81
2023/01/13 00:39:46;;;;;;;;;;;;;;;9.69;100.00;101270.75;2085914;28;20126;-81
2023/01/13 00:41:11;;;;;;;7.28;4.25;;;;;;;9.69;100.00;101264.56;2101519;28;19981;-81
2023/01/13 00:44:14;;;;;;;5.85;2.97;;;;;;;9.71;100.00;101265.50;2104715;28;20130;-82
2023/01/13 00:45:38;;;;;;;4.97;3.38;;;;;;;9.73;100.00;101267.31;2103368;28;20193;-82
2023/01/13 00:47:01;;;;;;;5.47;3.20;;;;;;;9.75;100.00;101264.72;2102945;28;20143;-81
2023/01/13 00:48:25;;;;;;;5.15;3.08;;;;;;;9.75;100.00;101270.00;2094141;28;20254;-82
2023/01/13 00:49:47;;;;;;;8.18;3.97;;;;;;;9.74;100.00;101271.75;2099407;28;20051;-82
2023/01/13 00:51:13;;;;;;;8.05;3.92;;;;;;;9.74;100.00;101265.59;2102128;28;20521;-82
2023/01/13 00:52:35;;;;;;;7.38;3.92;;;;;;;9.74;100.00;101268.22;2104700;28;20087;-82
2023/01/13 00:53:58;;;;;;;10.77;6.05;;;;;;;9.74;100.00;101263.84;2106716;28;20058;-82
2023/01/13 00:55:21;;;;;;;11.13;6.70;;;;;;;9.74;100.00;101255.03;2103284;28;20040;-82
2023/01/13 00:56:42;;;;;;;10.70;6.57;;;;;;;9.72;100.00;101252.34;2105498;28;20040;-82
2023/01/13 00:58:07;;;;;;;7.18;4.65;;;;;;;9.72;100.00;101248.81;2103776;28;20105;-83
2023/01/13 00:59:29;;;;;;;6.25;3.45;;;;;;;9.68;100.00;101249.59;2098523;28;20130;-82
2023/01/13 01:00:52;;;;;;;8.02;3.53;;;;;;;9.65;100.00;101244.25;2092647;28;20083;-83
2023/01/13 01:02:13;;;;;;;4.28;2.35;;;;;;;9.62;100.00;101247.69;2100782;28;20048;-81
2023/01/13 01:03:36;;;;;;;4.93;2.20;;;;;;;9.63;100.00;101238.94;2103824;28;20046;-81
2023/01/13 01:05:00;;;;;;;5.15;3.60;;;;;;;9.62;100.00;101247.69;2103145;28;20118;-81
2023/01/13 01:06:25;;;;;;;4.78;3.05;;;;;;;9.62;100.00;101249.44;2103162;28;20141;-81
2023/01/13 01:07:48;;;;;;;10.30;7.90;;;;;;;9.59;100.00;101253.75;2104528;28;20051;-81
2023/01/13 01:09:14;;;;;;;9.88;6.28;;;;;;;9.58;100.00;101248.47;2103048;28;20044;-81
2023/01/13 01:10:35;;;;;;;7.20;5.28;;;;;;;9.56;100.00;101242.25;2094941;28;20143;-81
2023/01/13 01:11:58;;;;;;;6.55;4.60;;;;;;;9.54;100.00;101239.56;2091380;28;20044;-82
2023/01/13 01:13:23;;;;;;;8.85;6.25;;;;;;;9.53;100.00;101235.16;2095471;28;20040;-82
2023/01/13 01:14:44;;;;;;;9.88;6.43;;;;;;;9.52;100.00;101238.63;2095036;28;20139;-82
2023/01/13 01:16:10;;;;;;;14.85;5.95;;;;;;;9.50;100.00;101237.72;2099376;28;20063;-82
2023/01/13 01:17:32;;;;;;;8.75;5.18;;;;;;;9.48;100.00;101231.50;2103920;28;20232;-81
2023/01/13 01:18:56;;;;;;;8.73;4.70;;;;;;;9.49;100.00;101229.78;2103935;28;20047;-81
2023/01/13 01:20:18;;;;;;;7.43;4.05;;;;;;;9.48;100.00;101234.16;2095345;28;20127;-81
2023/01/13 01:21:40;;;;;;;4.65;3.35;;;;;;;9.48;100.00;101233.25;2103614;28;20401;-82
2023/01/13 01:23:03;;;;;;;8.48;4.25;;;;;;;9.48;100.00;101231.50;2104640;28;20097;-82
2023/01/13 01:24:26;;;;;;;7.75;3.53;;;;;;;9.50;100.00;101236.81;2105664;28;20047;-81
2023/01/13 01:25:49;;;;;;;6.80;3.92;;;;;;;9.49;100.00;101228.03;2109124;28;20139;-82
2023/01/13 01:27:12;;;;;;;9.30;5.60;;;;;;;9.48;100.00;101226.25;2112366;28;20116;-81
2023/01/13 01:28:36;;;;;;;9.23;5.25;;;;;;;9.48;100.00;101223.59;2112190;28;20067;-81
2023/01/13 01:29:59;;;;;;;7.05;4.05;;;;;;;9.46;100.00;101227.94;2112289;28;20093;-81
2023/01/13 01:31:23;;;;;;;9.82;4.25;;;;;;;9.45;100.00;101226.13;2112061;28;20138;-82
2023/01/13 01:32:45;;;;;;;7.88;5.57;;;;;;;9.43;100.00;101224.34;2103833;28;20139;-81
2023/01/13 01:34:07;;;;;;;8.10;4.60;;;;;;;9.41;100.00;101228.66;2106180;28;20131;-82
2023/01/13 01:35:30;;;;;;;5.22;4.00;;;;;;;9.37;100.00;101222.44;2098085;28;20057;-81
2023/01/13 01:36:51;;;;;;;4.05;3.30;;;;;;;9.35;100.00;101225.84;2103684;28;20118;-82
2023/01/13 01:38:14;;;;;;;5.30;2.80;;;;;;;9.29;100.00;101216.03;2103345;28;20547;-81
2023/01/13 01:39:37;;;;;;;3.80;2.63;;;;;;;9.26;100.00;101218.56;2103544;28;20486;-81
2023/01/13 01:40:58;;;;;;;4.63;2.58;;;;;;;9.24;100.00;101217.66;2103701;28;20493;-81
2023/01/13 01:44:09;;;;;;;6.68;3.22;;;;;;;9.18;100.00;101212.22;2106381;28;20044;-82
2023/01/13 01:45:30;;;;;;;4.88;3.20;;;;;;;9.17;100.00;101218.34;2104167;28;20044;-82
2023/01/13 01:46:53;;;;;;;6.18;3.70;;;;;;;9.15;100.00;101205.13;2106214;28;20113;-82
2023/01/13 01:48:15;;;;;;;18.67;14.32;;;;;;;9.14;100.00;101211.22;2103859;28;20075;-83
2023/01/13 01:49:40;;;;;;;25.92;19.08;;;;;;;9.13;100.00;101204.16;2098786;28;20513;-82
2023/01/13 01:51:03;;;;;;;21.60;15.98;;;;;;;9.12;100.00;101204.16;2094056;28;20617;-82
2023/01/13 01:52:28;;;;;;;17.55;10.65;;;;;;;9.12;100.00;101198.88;2087136;28;20171;-82
2023/01/13 01:53:50;;;;;;;18.08;10.25;;;;;;;9.11;100.00;101208.53;2094399;28;20039;-82
2023/01/13 01:55:14;;;;;;;;;;;;;;;9.06;100.00;101203.94;2100657;28;20500;-82
2023/01/13 01:56:39;;;;;;;30.13;17.27;;;;;;;9.06;100.00;101209.22;2103029;28;19958;-81
2023/01/13 01:58:06;;;;;;;11.15;6.47;;;;;;;9.06;100.00;101203.94;2095444;28;20040;-82
2023/01/13 01:59:32;;;;;;;14.65;9.35;;;;;;;9.04;100.00;101206.56;2090438;28;20048;-82
2023/01/13 02:00:53;;;;;;;14.18;7.88;;;;;;;9.03;100.00;101212.66;2102839;28;20040;-81
2023/01/13 02:02:16;;;;;;;10.50;5.93;;;;;;;9.01;100.00;101211.72;2095910;28;20036;-82
2023/01/13 02:03:42;;;;;;;8.30;4.63;;;;;;;9.02;100.00;101213.50;2102747;28;20048;-81
2023/01/13 02:05:04;;;;;;;6.03;3.40;;;;;;;9.03;100.00;101219.69;2103350;28;20032;-81
2023/01/13 02:06:28;;;;;;;12.15;6.07;;;;;;;9.03;100.00;101209.16;2103587;28;20134;-82
2023/01/13 02:07:53;;;;;;;13.02;8.15;;;;;;;9.01;100.00;101219.63;2102865;28;20051;-81
2023/01/13 02:09:16;;;;;;;21.58;13.45;;;;;;;9.03;100.00;101222.31;2104065;28;20146;-82
2023/01/13 02:10:39;;;;;;;60.67;37.08;;;;;;;9.01;100.00;101219.63;2103345;28;20047;-82
2023/01/13 02:13:41;;;;;;;103.55;58.65;;;;;;;8.98;100.00;101213.41;2105681;28;20044;-82
2023/01/13 02:15:09;;;;;;;21.15;13.88;;;;;;;8.99;100.00;101209.91;2103426;28;20048;-81
2023/01/13 02:16:31;;;;;;;12.02;8.77;;;;;;;9.00;100.00;101219.56;2103852;28;20079;-81
2023/01/13 02:18:09;;;;;;;29.67;20.88;;;;;;;9.01;100.00;101214.34;2096618;28;20053;-81
2023/01/13 02:20:16;;;;;;;13.70;11.68;;;;;;;9.00;100.00;101206.41;2096649;28;20043;-80
2023/01/13 02:22:11;;;;;;;12.48;8.73;;;;;;;8.98;100.00;101210.75;2097841;28;20040;-82
2023/01/13 02:26:25;;;;;;;9.85;6.97;;;;;;;8.96;100.00;101213.34;2114303;28;20045;-81
2023/01/13 02:27:57;;;;;;;10.65;8.52;;;;;;;8.94;100.00;101206.22;2108816;27;20509;-82
2023/01/13 02:31:43;;;;;;;12.23;9.25;;;;;;;8.88;100.00;101206.94;2089130;28;20037;-82
2023/01/13 02:33:30;;;;;;;12.00;8.57;;;;;;;8.86;100.00;101202.50;2105229;28;20044;-81
2023/01/13 02:35:04;;;;;;;8.70;5.55;;;;;;;8.84;100.00;101198.94;2089074;28;20049;-82
2023/01/13 02:36:35;;;;;;;5.20;3.42;;;;;;;8.83;100.00;101200.66;2104218;28;20081;-82
2023/01/13 02:37:59;;;;;;;5.70;3.33;;;;;;;8.84;100.00;101202.47;2097507;28;20044;-82
2023/01/13 02:39:27;;;;;;;5.95;3.55;;;;;;;8.85;100.00;101201.63;2095159;28;20142;-82
2023/01/13 02:40:57;;;;;;;4.15;2.80;;;;;;;8.86;100.00;101202.50;2098260;28;20521;-82
2023/01/13 02:44:06;;;;;;;6.97;3.88;;;;;;;8.83;100.00;101210.28;2105652;28;20432;-80
2023/01/13 02:45:36;;;;;;;3.33;2.70;;;;;;;8.83;100.00;101205.94;2094823;28;20541;-82
2023/01/13 02:47:01;;;;;;;5.10;2.90;;;;;;;8.84;100.00;101210.34;2102512;28;20044;-81
2023/01/13 02:48:25;;;;;;;4.05;2.72;;;;;;;8.84;100.00;101207.72;2095520;28;20086;-82
2023/01/13 02:49:51;;;;;;;5.63;3.15;;;;;;;8.85;100.00;101196.34;2100454;28;20529;-82
2023/01/13 02:51:16;;;;;;;5.63;2.60;;;;;;;8.85;100.00;101198.09;2095504;28;20073;-82
2023/01/13 02:52:43;;;;;;;5.05;2.70;;;;;;;8.82;100.00;101193.63;2101720;28;20059;-81
2023/01/13 02:54:10;;;;;;;4.75;3.00;;;;;;;8.82;100.00;101188.34;2103590;28;20097;-81
2023/01/13 02:55:38;;;;;;;3.42;2.40;;;;;;;8.81;100.00;101197.09;2105705;28;20048;-81
2023/01/13 02:57:03;;;;;;;4.15;2.40;;;;;;;8.79;100.00;101186.50;2104039;28;20047;-82
2023/01/13 02:58:29;;;;;;;4.00;2.72;;;;;;;8.80;100.00;101188.28;2101902;28;20040;-81
2023/01/13 02:59:54;;;;;;;3.97;2.50;;;;;;;8.80;100.00;101185.66;2102990;28;20052;-81
2023/01/13 03:01:17;;;;;;;4.30;2.40;;;;;;;8.80;100.00;101188.28;2102992;28;20089;-81
2023/01/13 03:02:40;;;;;;;4.82;3.00;;;;;;;8.80;100.00;101187.41;2094662;28;20522;-82
2023/01/13 03:04:10;;;;;;;4.13;2.58;;;;;;;8.79;100.00;101188.28;2086151;28;20094;-81
2023/01/13 03:05:34;;;;;;;5.57;3.15;;;;;;;8.80;100.00;101184.75;2094073;28;20083;-80
2023/01/13 03:07:05;;;;;;;5.68;3.50;;;;;;;8.82;100.00;101185.72;2087228;28;20078;-82
2023/01/13 03:08:41;;;;;;;6.45;4.00;;;;;;;8.82;100.00;101185.72;2098244;28;20051;-81
2023/01/13 03:10:09;;;;;;;7.38;3.22;;;;;;;8.84;100.00;101189.28;2097196;28;20055;-81
2023/01/13 03:11:39;;;;;;;7.53;3.80;;;;;;;8.84;100.00;101188.41;2102788;28;20044;-81
2023/01/13 03:13:12;;;;;;;6.18;3.72;;;;;;;8.85;100.00;101180.56;2102989;28;20044;-81
2023/01/13 03:14:41;;;;;;;5.93;3.88;;;;;;;8.86;100.00;101181.44;2104003;28;20097;-81
2023/01/13 03:16:15;;;;;;;5.45;3.25;;;;;;;8.86;100.00;101176.19;2101753;28;20043;-80
2023/01/13 03:17:42;;;;;;;5.82;3.25;;;;;;;8.87;100.00;101177.94;2104516;28;20079;-81
2023/01/13 03:19:16;;;;;;;16.30;10.57;;;;;;;8.90;100.00;101183.31;2094868;28;20052;-81
2023/01/13 03:20:47;;;;;;;14.85;10.38;;;;;;;8.92;100.00;101184.25;2087609;28;20044;-81
2023/01/13 03:22:18;;;;;;;19.88;15.48;;;;;;;8.93;100.00;101183.38;2094326;28;20048;-82
2023/01/13 03:23:50;;;;;;;17.90;14.80;;;;;;;8.96;100.00;101188.75;2092956;28;20048;-81
2023/01/13 03:25:17;;;;;;;16.30;12.02;;;;;;;8.94;100.00;101182.53;2104121;28;20048;-81
2023/01/13 03:26:45;;;;;;;23.58;18.70;;;;;;;8.97;100.00;101193.16;2095158;28;20063;-81
2023/01/13 03:28:11;;;;;;;13.65;9.98;;;;;;;8.96;100.00;101192.28;2101449;28;20048;-81
2023/01/13 03:29:37;;;;;;;9.18;5.85;;;;;;;8.96;100.00;101191.38;2103021;28;20048;-80
2023/01/13 03:31:04;;;;;;;10.35;7.32;;;;;;;8.96;100.00;101194.00;2105209;28;20044;-81
2023/01/13 03:32:31;;;;;;;10.05;7.85;;;;;;;8.96;100.00;101196.66;2103588;28;20145;-81
2023/01/13 03:33:59;;;;;;;10.25;7.63;;;;;;;8.96;100.00;101197.53;2094837;28;20045;-81
2023/01/13 03:35:26;;;;;;;11.48;7.72;;;;;;;8.97;100.00;101190.53;2093301;28;20054;-82
2023/01/13 03:36:50;;;;;;;9.52;5.57;;;;;;;8.96;100.00;101194.00;2103725;28;20505;-81
2023/01/13 03:38:16;;;;;;;5.63;3.70;;;;;;;8.95;100.00;101189.59;2102697;28;20056;-81
2023/01/13 03:39:42;;;;;;;5.53;3.00;;;;;;;8.96;100.00;101196.66;2103082;28;20059;-81
2023/01/13 03:41:08;;;;;;;4.32;3.00;;;;;;;8.98;100.00;101201.13;2103481;28;20067;-81
2023/01/13 03:42:33;;;;;;;5.72;3.17;;;;;;;9.00;100.00;101201.13;2103424;28;20516;-81
2023/01/13 03:44:22;;;;;;;6.10;3.00;;;;;;;9.00;100.00;101196.78;2102222;28;20048;-81
2023/01/13 03:45:49;;;;;;;5.20;2.55;;;;;;;9.01;100.00;101205.56;2105362;28;20052;-81
2023/01/13 03:47:18;;;;;;;4.57;2.28;;;;;;;9.02;100.00;101199.44;2103406;28;20148;-81
2023/01/13 03:48:41;;;;;;;4.97;2.30;;;;;;;9.02;100.00;101194.19;2109974;28;20087;-81
2023/01/13 03:50:09;;;;;;;3.80;2.50;;;;;;;9.04;100.00;101210.94;2103779;28;20109;-81
2023/01/13 03:51:34;;;;;;;3.08;2.03;;;;;;;9.04;100.00;101210.94;2095016;28;20040;-80
2023/01/13 03:53:02;;;;;;;4.05;3.08;;;;;;;9.04;100.00;101206.56;2101410;28;20048;-81
2023/01/13 03:54:27;;;;;;;4.95;2.95;;;;;;;9.05;100.00;101213.63;2101753;28;20036;-81
2023/01/13 03:55:55;;;;;;;5.22;4.05;;;;;;;9.06;100.00;101206.59;2096915;28;20060;-80
2023/01/13 03:57:23;;;;;;;3.92;3.00;;;;;;;9.08;100.00;101210.16;2096860;28;20040;-81
2023/01/13 03:58:47;;;;;;;4.82;2.53;;;;;;;9.09;100.00;101214.59;2097282;28;20056;-81
2023/01/13 04:00:13;;;;;;;4.47;2.58;;;;;;;9.09;100.00;101217.22;2102737;28;20089;-81
2023/01/13 04:01:43;;;;;;;4.35;3.00;;;;;;;9.11;100.00;101212.91;2088820;28;20075;-81
2023/01/13 04:03:10;;;;;;;5.68;2.75;;;;;;;9.12;100.00;101215.56;2102111;28;20062;-81
2023/01/13 04:04:36;;;;;;;3.20;1.90;;;;;;;9.16;100.00;101219.19;2101069;28;20036;-81
2023/01/13 04:06:15;;;;;;;10.65;6.22;;;;;;;9.22;100.00;101219.34;2100789;28;20044;-81
2023/01/13 04:07:45;;;;;;;12.13;6.03;;;;;;;9.29;100.00;101226.59;2104321;28;20448;-81
2023/01/13 04:09:16;;;;;;;9.20;5.50;;;;;;;9.37;100.00;101225.06;2103581;28;20051;-81
2023/01/13 04:10:44;;;;;;;9.32;7.57;;;;;;;9.38;100.00;101229.50;2095550;28;20048;-81
2023/01/13 04:12:10;;;;;;;6.95;5.15;;;;;;;9.35;100.00;101231.13;2103615;28;20081;-81
2023/01/13 04:13:37;;;;;;;5.93;3.50;;;;;;;9.26;100.00;101234.38;2101265;28;20116;-81
2023/01/13 04:14:58;;;;;;;14.13;12.70;;;;;;;9.16;100.00;101229.72;2105032;28;20062;-81
2023/01/13 04:16:21;;;;;;;46.25;42.40;;;;;;;9.09;100.00;101235.66;2091273;28;20084;-80
2023/01/13 04:17:43;;;;;;;48.83;44.70;;;;;;;9.06;100.00;101232.91;2093861;28;20040;-82
2023/01/13 04:19:06;;;;;;;72.80;66.70;;;;;;;9.07;100.00;101235.59;2102878;28;20269;-81
2023/01/13 04:20:27;;;;;;;28.17;25.75;;;;;;;9.08;100.00;101242.66;2102178;28;20055;-82
2023/01/13 04:21:51;;;;;;;30.65;27.98;;;;;;;9.07;100.00;101239.97;2101261;28;20040;-81
2023/01/13 04:23:13;;;;;;;21.35;19.25;;;;;;;9.05;100.00;101242.59;2099465;28;20051;-81
2023/01/13 04:24:36;;;;;;;7.32;5.75;;;;;;;9.02;100.00;101231.94;2102344;28;20040;-81
2023/01/13 04:25:58;;;;;;;7.22;5.32;;;;;;;9.01;100.00;101239.78;2100335;28;20047;-81
2023/01/13 04:27:20;;;;;;;10.50;7.82;;;;;;;8.98;100.00;101245.00;2102332;28;20101;-81
2023/01/13 04:28:42;;;;;;;11.27;8.32;;;;;;;8.94;100.00;101243.97;2096803;28;20495;-82
2023/01/13 04:30:05;;;;;;;9.23;6.55;;;;;;;8.89;100.00;101242.97;2099333;28;20484;-82
2023/01/13 04:31:27;;;;;;;7.85;5.28;;;;;;;8.84;100.00;101239.31;2102095;28;20397;-81
2023/01/13 04:32:49;;;;;;;8.70;5.22;;;;;;;8.79;100.00;101239.16;2102454;28;20309;-81
2023/01/13 04:34:11;;;;;;;8.00;3.90;;;;;;;8.75;100.00;101239.91;2100944;28;20123;-81
2023/01/13 04:35:33;;;;;;;6.97;4.32;;;;;;;8.73;100.00;101244.22;2102546;28;20044;-81
2023/01/13 04:36:57;;;;;;;6.22;4.15;;;;;;;8.70;100.00;101244.16;2101710;28;20516;-81
2023/01/13 04:38:21;;;;;;;10.00;5.40;;;;;;;8.69;100.00;101246.72;2102275;28;20142;-80
2023/01/13 04:39:42;;;;;;;8.48;5.57;;;;;;;8.66;100.00;101246.66;2102037;28;20063;-80
2023/01/13 04:41:05;;;;;;;10.65;8.13;;;;;;;8.66;100.00;101241.38;2099961;28;20041;-80
2023/01/13 04:42:26;;;;;;;19.23;14.27;;;;;;;8.66;100.00;101244.03;2097647;28;20040;-80
2023/01/13 04:43:48;;;;;;;23.80;17.23;;;;;;;8.65;100.00;101239.59;2100857;28;20505;-81
2023/01/13 04:45:11;;;;;;;36.88;25.83;;;;;;;8.67;100.00;101248.41;2101613;28;20066;-81
2023/01/13 04:46:33;;;;;;;45.47;32.05;;;;;;;8.68;100.00;101237.94;2102061;28;20513;-80
2023/01/13 04:47:54;;;;;;;21.20;16.70;;;;;;;8.68;100.00;101244.94;2101749;28;20084;-81
2023/01/13 04:49:16;;;;;;;23.55;18.70;;;;;;;8.65;100.00;101235.22;2101558;28;20118;-80
2023/01/13 04:50:39;;;;;;;35.60;24.95;;;;;;;8.63;100.00;101236.91;2101271;28;20032;-81
2023/01/13 04:52:05;;;;;;;37.95;25.88;;;;;;;8.63;100.00;101236.91;2102548;28;20052;-81
2023/01/13 04:53:28;;;;;;;47.17;31.40;;;;;;;8.62;100.00;101236.84;2102658;28;20072;-81
2023/01/13 04:54:49;;;;;;;60.88;41.92;;;;;;;8.62;100.00;101235.13;2100575;28;20047;-81
2023/01/13 04:56:11;;;;;;;49.22;34.53;;;;;;;8.63;100.00;101233.38;2101568;28;20048;-81
2023/01/13 04:57:33;;;;;;;41.17;29.42;;;;;;;8.64;100.00;101243.97;2102273;28;20405;-80
2023/01/13 04:58:56;;;;;;;27.35;18.00;;;;;;;8.64;100.00;101241.34;2086366;28;20045;-80
2023/01/13 05:00:19;;;;;;;16.77;12.75;;;;;;;8.65;100.00;101242.22;2097457;28;20089;-80
2023/01/13 05:01:42;;;;;;;14.25;11.10;;;;;;;8.62;100.00;101240.38;2098873;28;20130;-80
2023/01/13 05:03:05;;;;;;;19.17;14.77;;;;;;;8.58;100.00;101241.16;2102529;28;20036;-79
2023/01/13 05:04:26;;;;;;;34.05;23.92;;;;;;;8.56;100.00;101242.81;2099665;28;20073;-80
2023/01/13 05:05:51;;;;;;;37.97;27.00;;;;;;;8.53;100.00;101242.75;2098485;28;20127;-80
2023/01/13 05:07:15;;;;;;;31.73;23.63;;;;;;;8.54;100.00;101248.88;2095603;28;20040;-80
2023/01/13 05:08:37;;;;;;;28.50;23.40;;;;;;;8.52;100.00;101254.09;2102378;28;20421;-79
2023/01/13 05:09:59;;;;;;;41.05;31.25;;;;;;;8.52;100.00;101254.09;2098585;28;20040;-82
2023/01/13 05:18:00;;;;;;;37.40;24.80;;;;;;;8.40;100.00;101237.94;2101753;28;20718;-80
2023/01/13 05:19:21;;;;;;;44.88;29.30;;;;;;;8.38;100.00;101243.16;2085790;28;20068;-81
2023/01/13 05:20:44;;;;;;;73.00;47.90;;;;;;;8.38;100.00;101242.25;2085353;28;20507;-81
2023/01/13 05:25:27;;;;;;;94.63;64.43;;;;;;;8.50;100.00;101247.91;2113122;28;20089;-81
2023/01/13 05:26:49;;;;;;;;;;;;;;;8.52;100.00;101247.94;2105017;28;20048;-81
2023/01/13 05:28:11;;;;;;;66.60;47.95;;;;;;;8.59;100.00;101248.19;2107684;28;19919;-81
2023/01/13 05:29:32;;;;;;;56.58;40.60;;;;;;;8.66;100.00;101246.66;2113331;28;20512;-83
2023/01/13 05:30:54;;;;;;;50.65;38.22;;;;;;;8.76;100.00;101249.59;2110608;28;20108;-84
2023/01/13 05:32:16;;;;;;;65.45;48.10;;;;;;;8.88;100.00;101251.69;2110779;28;20050;-84
2023/01/13 05:33:38;;;;;;;64.65;45.90;;;;;;;8.98;100.00;101250.25;2105776;28;20047;-84
2023/01/13 05:35:00;;;;;;;67.18;49.50;;;;;;;9.06;100.00;101261.88;2096376;28;20181;-84
2023/01/13 05:36:22;;;;;;;67.35;51.30;;;;;;;9.11;100.00;101261.19;2093405;28;20063;-83
2023/01/13 05:37:46;;;;;;;37.33;25.50;;;;;;;9.14;100.00;101266.53;2094103;28;20720;-83
2023/01/13 05:39:09;;;;;;;23.85;14.52;;;;;;;9.13;100.00;101267.38;2095276;28;20072;-83
2023/01/13 05:43:50;;;;;;;17.08;12.55;;;;;;;9.11;100.00;101276.09;2097387;28;20056;-78
2023/01/13 05:45:12;;;;;;;26.88;19.30;;;;;;;9.13;100.00;101277.00;2101368;28;20044;-77
2023/01/13 05:46:35;;;;;;;29.83;22.50;;;;;;;9.09;100.00;101280.41;2101524;28;20389;-76
2023/01/13 05:47:56;;;;;;;29.00;22.02;;;;;;;9.04;100.00;101277.66;2094688;28;20105;-75
2023/01/13 05:49:18;;;;;;;35.20;24.70;;;;;;;9.02;100.00;101286.34;2099259;28;20079;-75
2023/01/13 05:50:40;;;;;;;37.05;27.33;;;;;;;8.97;100.00;101273.06;2094671;28;20807;-76
2023/01/13 05:52:02;;;;;;;35.08;26.63;;;;;;;8.93;100.00;101273.78;2089753;28;20472;-76
2023/01/13 05:53:24;;;;;;;24.13;18.25;;;;;;;8.92;100.00;101274.66;2095990;28;20079;-76
2023/01/13 05:54:48;;;;;;;14.50;9.50;;;;;;;8.88;100.00;101275.41;2086749;28;20051;-76
2023/01/13 05:56:12;;;;;;;12.80;7.80;;;;;;;8.87;100.00;101280.59;2085660;28;20048;-77
2023/01/13 05:57:33;;;;;;;10.27;6.75;;;;;;;8.88;100.00;101279.75;2092449;28;20044;-76
2023/01/13 05:58:55;;;;;;;9.65;6.13;;;;;;;8.88;100.00;101283.28;2095412;28;20562;-76
2023/01/13 06:00:18;;;;;;;8.20;5.28;;;;;;;8.88;100.00;101280.66;2086292;28;20486;-76
2023/01/13 06:01:40;;;;;;;7.05;4.57;;;;;;;8.90;100.00;101278.09;2093051;28;20040;-77
2023/01/13 06:03:02;;;;;;;9.75;6.07;;;;;;;8.89;100.00;101279.81;2097589;28;20041;-77
2023/01/13 06:04:24;;;;;;;;;;;;;;;8.88;100.00;101274.50;2089444;28;20045;-77
2023/01/13 06:05:47;;;;;;;17.98;11.25;;;;;;;8.91;100.00;101283.41;2097903;28;20055;-77
2023/01/13 06:07:09;;;;;;;15.02;11.10;;;;;;;8.97;100.00;101287.97;2102365;28;20051;-77
2023/01/13 06:08:33;;;;;;;19.42;13.50;;;;;;;9.03;100.00;101293.41;2087392;28;20052;-77
2023/01/13 06:09:55;;;;;;;21.77;14.82;;;;;;;9.09;100.00;101288.31;2093975;28;20039;-76
2023/01/13 06:11:18;;;;;;;40.78;27.30;;;;;;;9.13;100.00;101295.44;2087038;28;20066;-77
2023/01/13 06:12:39;;;;;;;29.90;21.48;;;;;;;9.19;100.00;101295.63;2088041;28;20060;-77
2023/01/13 06:14:02;;;;;;;26.67;19.42;;;;;;;9.27;100.00;101299.41;2093051;28;20367;-77
2023/01/13 06:15:24;;;;;;;34.83;25.88;;;;;;;9.35;100.00;101300.53;2092729;28;20044;-77
2023/01/13 06:16:48;;;;;;;35.05;26.70;;;;;;;9.43;100.00;101298.09;2093815;28;20524;-77
2023/01/13 06:18:10;;;;;;;21.23;16.17;;;;;;;9.51;100.00;101307.13;2092873;28;20044;-78
2023/01/13 06:19:31;;;;;;;31.48;23.70;;;;;;;9.59;100.00;101310.84;2099354;28;20047;-78
2023/01/13 06:20:53;;;;;;;33.65;24.48;;;;;;;9.65;100.00;101308.38;2102933;28;20455;-78
2023/01/13 06:22:18;;;;;;;30.42;22.05;;;;;;;9.73;100.00;101312.13;2104322;28;20044;-78
2023/01/13 06:23:41;;;;;;;33.05;24.33;;;;;;;9.78;100.00;101310.50;2101680;28;20040;-78
2023/01/13 06:25:10;;;;;;;42.42;34.38;;;;;;;9.86;100.00;101316.00;2094742;28;20143;-78
2023/01/13 06:26:37;;;;;;;38.75;29.92;;;;;;;9.91;100.00;101317.91;2094825;28;20044;-78
2023/01/13 06:28:01;;;;;;;39.25;30.17;;;;;;;9.97;100.00;101314.56;2085540;28;20502;-78
2023/01/13 06:29:22;;;;;;;40.88;31.08;;;;;;;9.99;100.00;101316.38;2101501;28;20044;-78
2023/01/13 06:30:48;;;;;;;43.80;31.23;;;;;;;10.04;100.00;101319.16;2093127;28;20079;-78
2023/01/13 06:32:16;;;;;;;37.28;29.63;;;;;;;10.06;100.00;101320.06;2099725;28;20055;-79
2023/01/13 06:33:44;;;;;;;34.72;27.17;;;;;;;10.09;100.00;101320.16;2095051;28;20040;-78
2023/01/13 06:35:10;;;;;;;35.58;27.70;;;;;;;10.11;100.00;101321.06;2100879;28;20047;-78
2023/01/13 06:36:38;;;;;;;34.47;27.80;;;;;;;10.14;100.00;101329.09;2102248;28;20549;-78
2023/01/13 06:38:04;;;;;;;37.45;29.08;;;;;;;10.17;100.00;101326.56;2103465;28;20044;-79
2023/01/13 06:39:29;;;;;;;37.90;28.75;;;;;;;10.21;100.00;101320.50;2101380;28;20051;-79
2023/01/13 06:40:54;;;;;;;35.35;25.85;;;;;;;10.25;100.00;101321.47;2093875;28;20040;-78
2023/01/13 06:44:07;;;;;;;30.05;23.77;;;;;;;10.28;100.00;101333.00;2078247;28;20566;-79
2023/01/13 06:45:31;;;;;;;33.70;24.42;;;;;;;10.30;100.00;101330.44;2074876;28;20073;-78
2023/01/13 06:46:53;;;;;;;53.92;40.85;;;;;;;10.31;100.00;101332.19;2102338;28;20071;-79
2023/01/13 06:48:17;;;;;;;52.58;39.45;;;;;;;10.29;100.00;101337.44;2093461;28;20059;-78
2023/01/13 06:49:40;;;;;;;17.92;13.40;;;;;;;10.31;100.00;101329.53;2092108;28;20051;-79
2023/01/13 06:51:02;;;;;;;28.02;21.35;;;;;;;10.34;100.00;101334.91;2091953;28;20072;-79
2023/01/13 06:52:24;;;;;;;28.77;20.13;;;;;;;10.36;100.00;101335.84;2102840;28;20051;-80
2023/01/13 06:53:47;;;;;;;21.90;15.48;;;;;;;10.39;100.00;101341.19;2101782;28;20044;-80
2023/01/13 06:55:08;;;;;;;20.80;15.32;;;;;;;10.42;100.00;101343.03;2094228;28;20070;-79
2023/01/13 06:56:32;;;;;;;19.00;14.40;;;;;;;10.53;100.00;101338.91;2090888;28;20045;-80
2023/01/13 06:57:56;;;;;;;25.08;19.38;;;;;;;10.62;100.00;101342.69;2097711;28;20040;-79